createdAt,value
2023-04-29T00:00:42.307Z,26.15
2023-04-29T00:01:42.366Z,26.15
2023-04-29T00:02:42.637Z,26.15
2023-04-29T00:03:42.603Z,26.12
2023-04-29T00:04:42.700Z,26.16
2023-04-29T00:05:42.666Z,26.15
2023-04-29T00:06:42.688Z,26.15
2023-04-29T00:07:42.756Z,26.14
2023-04-29T00:08:42.798Z,26.15
2023-04-29T00:09:42.849Z,26.16
2023-04-29T00:10:42.895Z,26.15
2023-04-29T00:11:42.993Z,26.16
2023-04-29T00:12:43.035Z,26.14
2023-04-29T00:13:43.126Z,26.15
2023-04-29T00:14:43.149Z,26.14
2023-04-29T00:15:43.246Z,26.15
2023-04-29T00:16:43.289Z,26.16
2023-04-29T00:17:43.385Z,26.15
2023-04-29T00:18:43.395Z,26.16
2023-04-29T00:19:43.445Z,26.15
2023-04-29T00:20:43.661Z,26.16
2023-04-29T00:21:43.587Z,26.18
2023-04-29T00:22:43.659Z,26.16
2023-04-29T00:23:43.714Z,26.16
2023-04-29T00:24:43.797Z,26.16
2023-04-29T00:25:43.825Z,26.18
2023-04-29T00:26:43.906Z,26.15
2023-04-29T00:27:43.949Z,26.12
2023-04-29T00:28:44.017Z,26.15
2023-04-29T00:29:44.074Z,26.14
2023-04-29T00:30:44.171Z,26.14
2023-04-29T00:31:44.215Z,26.12
2023-04-29T00:32:44.288Z,26.14
2023-04-29T00:33:44.348Z,26.14
2023-04-29T00:34:44.387Z,26.14
2023-04-29T00:35:44.462Z,26.15
2023-04-29T00:36:44.513Z,26.15
2023-04-29T00:37:44.553Z,26.12
2023-04-29T00:38:44.599Z,26.16
2023-04-29T00:39:44.698Z,26.15
2023-04-29T00:40:44.731Z,26.16
2023-04-29T00:41:44.786Z,26.15
2023-04-29T00:42:44.864Z,26.15
2023-04-29T00:43:44.903Z,26.16
2023-04-29T00:44:45.110Z,26.15
2023-04-29T00:45:45.319Z,26.14
2023-04-29T00:46:45.361Z,26.15
2023-04-29T00:47:45.162Z,26.15
2023-04-29T00:48:45.132Z,26.16
2023-04-29T00:49:45.161Z,26.15
2023-04-29T00:50:45.220Z,26.15
2023-04-29T00:51:45.318Z,26.14
2023-04-29T00:52:45.342Z,26.14
2023-04-29T00:53:45.534Z,26.15
2023-04-29T00:54:45.514Z,26.15
2023-04-29T00:55:45.498Z,26.12
2023-04-29T00:56:45.575Z,26.14
2023-04-29T00:57:45.645Z,26.15
2023-04-29T00:58:45.696Z,26.15
2023-04-29T00:59:45.796Z,26.15
2023-04-29T01:00:45.805Z,26.15
2023-04-29T01:01:45.912Z,26.15
2023-04-29T01:02:46.045Z,26.11
2023-04-29T01:03:46.104Z,26.15
2023-04-29T01:04:46.135Z,26.14
2023-04-29T01:05:46.145Z,26.15
2023-04-29T01:06:46.185Z,26.15
2023-04-29T01:07:46.261Z,26.14
2023-04-29T01:08:46.312Z,26.14
2023-04-29T01:09:46.367Z,26.14
2023-04-29T01:10:46.449Z,26.14
2023-04-29T01:11:46.485Z,26.14
2023-04-29T01:12:46.571Z,26.15
2023-04-29T01:13:46.623Z,26.15
2023-04-29T01:14:46.678Z,26.12
2023-04-29T01:15:46.837Z,26.12
2023-04-29T01:16:46.815Z,26.14
2023-04-29T01:17:46.879Z,26.11
2023-04-29T01:18:46.916Z,26.12
2023-04-29T01:19:46.977Z,26.15
2023-04-29T01:20:47.022Z,26.15
2023-04-29T01:21:47.077Z,26.11
2023-04-29T01:22:47.163Z,26.14
2023-04-29T01:23:47.241Z,26.14
2023-04-29T01:24:47.298Z,26.15
2023-04-29T01:25:47.330Z,26.11
2023-04-29T01:26:47.389Z,26.12
2023-04-29T01:27:47.481Z,26.14
2023-04-29T01:28:47.522Z,26.14
2023-04-29T01:29:47.562Z,26.16
2023-04-29T01:30:47.623Z,26.14
2023-04-29T01:31:47.720Z,26.12
2023-04-29T01:32:47.812Z,26.14
2023-04-29T01:33:47.795Z,26.12
2023-04-29T01:34:47.889Z,26.12
2023-04-29T01:35:47.902Z,26.12
2023-04-29T01:36:47.953Z,26.12
2023-04-29T01:37:48.006Z,26.14
2023-04-29T01:38:48.105Z,26.11
2023-04-29T01:39:48.129Z,26.11
2023-04-29T01:40:48.182Z,26.12
2023-04-29T01:41:48.288Z,26.11
2023-04-29T01:42:48.326Z,26.11
2023-04-29T01:43:48.384Z,26.14
2023-04-29T01:44:48.436Z,26.12
2023-04-29T01:45:48.474Z,26.09
2023-04-29T01:46:48.551Z,26.11
2023-04-29T01:47:48.639Z,26.09
2023-04-29T01:48:48.668Z,26.09
2023-04-29T01:49:48.777Z,26.11
2023-04-29T01:50:48.740Z,26.12
2023-04-29T01:51:48.813Z,26.12
2023-04-29T01:52:48.877Z,26.11
2023-04-29T01:53:48.946Z,26.11
2023-04-29T01:54:48.979Z,26.11
2023-04-29T01:55:49.210Z,26.09
2023-04-29T01:56:49.127Z,26.11
2023-04-29T01:57:49.209Z,26.11
2023-04-29T01:58:49.280Z,26.12
2023-04-29T01:59:49.347Z,26.11
2023-04-29T02:00:49.426Z,26.09
2023-04-29T02:01:49.447Z,26.14
2023-04-29T02:02:49.613Z,26.11
2023-04-29T02:03:49.726Z,26.11
2023-04-29T02:04:49.711Z,26.11
2023-04-29T02:05:49.690Z,26.12
2023-04-29T02:06:49.729Z,26.11
2023-04-29T02:07:49.832Z,26.11
2023-04-29T02:08:49.896Z,26.11
2023-04-29T02:09:50.014Z,26.08
2023-04-29T02:10:50.007Z,26.11
2023-04-29T02:11:50.071Z,26.11
2023-04-29T02:12:50.099Z,26.09
2023-04-29T02:13:50.156Z,26.09
2023-04-29T02:14:50.248Z,26.09
2023-04-29T02:15:50.295Z,26.09
2023-04-29T02:16:50.495Z,26.08
2023-04-29T02:17:50.436Z,26.11
2023-04-29T02:18:50.431Z,26.06
2023-04-29T02:19:50.632Z,26.09
2023-04-29T02:20:50.563Z,26.11
2023-04-29T02:21:50.633Z,26.11
2023-04-29T02:22:50.653Z,26.11
2023-04-29T02:23:50.750Z,26.09
2023-04-29T02:24:50.785Z,26.11
2023-04-29T02:25:50.850Z,26.09
2023-04-29T02:26:50.886Z,26.09
2023-04-29T02:27:50.961Z,26.09
2023-04-29T02:28:51.021Z,26.08
2023-04-29T02:29:51.284Z,26.08
2023-04-29T02:30:51.131Z,26.09
2023-04-29T02:31:51.257Z,26.08
2023-04-29T02:32:51.278Z,26.08
2023-04-29T02:33:51.340Z,26.08
2023-04-29T02:34:51.722Z,26.09
2023-04-29T02:35:51.772Z,26.06
2023-04-29T02:36:51.461Z,26.09
2023-04-29T02:37:51.499Z,26.08
2023-04-29T02:38:51.536Z,26.06
2023-04-29T02:39:51.798Z,26.11
2023-04-29T02:40:51.657Z,26.06
2023-04-29T02:41:51.694Z,26.08
2023-04-29T02:42:51.745Z,26.06
2023-04-29T02:43:51.818Z,26.06
2023-04-29T02:44:51.858Z,26.09
2023-04-29T02:45:51.996Z,26.08
2023-04-29T02:46:51.985Z,26.08
2023-04-29T02:47:52.079Z,26.09
2023-04-29T02:48:52.147Z,26.09
2023-04-29T02:49:52.387Z,26.09
2023-04-29T02:50:52.232Z,26.08
2023-04-29T02:51:52.318Z,26.08
2023-04-29T02:52:52.378Z,26.06
2023-04-29T02:53:52.433Z,26.06
2023-04-29T02:54:52.517Z,26.08
2023-04-29T02:55:52.589Z,26.08
2023-04-29T02:56:52.625Z,26.08
2023-04-29T02:57:52.701Z,26.08
2023-04-29T02:58:52.808Z,26.06
2023-04-29T02:59:53.148Z,26.06
2023-04-29T03:00:52.967Z,26.06
2023-04-29T03:01:52.986Z,26.08
2023-04-29T03:02:53.114Z,26.05
2023-04-29T03:03:53.153Z,26.06
2023-04-29T03:04:53.130Z,26.08
2023-04-29T03:05:53.194Z,26.06
2023-04-29T03:06:53.269Z,26.08
2023-04-29T03:07:53.318Z,26.05
2023-04-29T03:08:53.371Z,26.06
2023-04-29T03:09:53.817Z,26.04
2023-04-29T03:10:53.541Z,26.06
2023-04-29T03:11:53.587Z,26.06
2023-04-29T03:12:53.668Z,26.06
2023-04-29T03:13:53.684Z,26.05
2023-04-29T03:14:53.751Z,26.06
2023-04-29T03:15:53.841Z,26.05
2023-04-29T03:16:53.961Z,26.08
2023-04-29T03:17:53.987Z,26.06
2023-04-29T03:18:54.010Z,26.05
2023-04-29T03:19:54.206Z,26.05
2023-04-29T03:20:54.162Z,26.06
2023-04-29T03:21:54.250Z,26.05
2023-04-29T03:22:54.277Z,26.04
2023-04-29T03:23:54.319Z,26.06
2023-04-29T03:24:54.379Z,26.06
2023-04-29T03:25:54.526Z,26.05
2023-04-29T03:26:54.492Z,26.06
2023-04-29T03:27:54.559Z,26.06
2023-04-29T03:28:54.616Z,26.06
2023-04-29T03:29:54.915Z,26.05
2023-04-29T03:30:54.775Z,26.05
2023-04-29T03:31:54.846Z,26.05
2023-04-29T03:32:54.933Z,26.06
2023-04-29T03:33:54.973Z,26.06
2023-04-29T03:34:55.083Z,26.05
2023-04-29T03:35:55.097Z,26.04
2023-04-29T03:36:55.170Z,26.05
2023-04-29T03:37:55.251Z,26.06
2023-04-29T03:38:55.316Z,26.05
2023-04-29T03:39:55.440Z,26.04
2023-04-29T03:40:55.438Z,26.06
2023-04-29T03:41:55.476Z,26.06
2023-04-29T03:42:55.537Z,26.06
2023-04-29T03:43:55.595Z,26.04
2023-04-29T03:44:55.689Z,26.05
2023-04-29T03:45:55.770Z,26.06
2023-04-29T03:46:55.792Z,26.05
2023-04-29T03:47:55.873Z,26.05
2023-04-29T03:48:55.910Z,26.04
2023-04-29T03:49:55.969Z,26.04
2023-04-29T03:50:56.024Z,26.04
2023-04-29T03:51:56.125Z,26.02
2023-04-29T03:52:56.135Z,26.06
2023-04-29T03:53:56.220Z,26.04
2023-04-29T03:54:56.279Z,26.04
2023-04-29T03:55:56.379Z,26.04
2023-04-29T03:56:56.527Z,26.04
2023-04-29T03:57:56.478Z,26.05
2023-04-29T03:58:56.552Z,26.02
2023-04-29T03:59:56.648Z,26.02
2023-04-29T04:00:56.712Z,26.05
2023-04-29T04:01:56.812Z,26.06
2023-04-29T04:02:56.891Z,26.05
2023-04-29T04:03:57.356Z,26.02
2023-04-29T04:04:57.100Z,26.04
2023-04-29T04:05:57.059Z,26.05
2023-04-29T04:06:57.086Z,26.02
2023-04-29T04:07:57.152Z,26.02
2023-04-29T04:08:57.226Z,26.05
2023-04-29T04:09:57.323Z,26.04
2023-04-29T04:10:57.406Z,26.04
2023-04-29T04:11:57.471Z,26.02
2023-04-29T04:12:57.518Z,26.02
2023-04-29T04:13:57.581Z,26.04
2023-04-29T04:14:57.655Z,26.01
2023-04-29T04:15:57.740Z,26.01
2023-04-29T04:16:57.778Z,26.02
2023-04-29T04:17:57.972Z,26.05
2023-04-29T04:18:57.936Z,26.02
2023-04-29T04:19:58.017Z,26.02
2023-04-29T04:20:58.086Z,26.05
2023-04-29T04:21:58.152Z,25.99
2023-04-29T04:22:58.216Z,26.01
2023-04-29T04:23:58.285Z,25.99
2023-04-29T04:24:58.322Z,25.99
2023-04-29T04:25:58.416Z,25.98
2023-04-29T04:26:58.487Z,26.01
2023-04-29T04:27:58.556Z,26.02
2023-04-29T04:28:58.602Z,26.01
2023-04-29T04:29:58.724Z,26.01
2023-04-29T04:30:58.768Z,25.99
2023-04-29T04:31:58.913Z,26.02
2023-04-29T04:32:58.905Z,25.98
2023-04-29T04:33:58.954Z,25.99
2023-04-29T04:34:58.994Z,25.99
2023-04-29T04:35:59.067Z,26.01
2023-04-29T04:36:59.115Z,25.99
2023-04-29T04:37:59.188Z,25.99
2023-04-29T04:38:59.222Z,25.99
2023-04-29T04:39:59.318Z,26.01
2023-04-29T04:40:59.387Z,26.01
2023-04-29T04:41:59.443Z,25.99
2023-04-29T04:42:59.516Z,26.02
2023-04-29T04:43:59.543Z,25.99
2023-04-29T04:44:59.662Z,25.98
2023-04-29T04:45:59.729Z,25.98
2023-04-29T04:46:59.755Z,25.99
2023-04-29T04:47:59.879Z,25.99
2023-04-29T04:48:59.896Z,25.98
2023-04-29T04:49:59.989Z,26.01
2023-04-29T04:51:00.045Z,25.98
2023-04-29T04:52:00.135Z,25.98
2023-04-29T04:53:00.178Z,25.98
2023-04-29T04:54:00.260Z,25.99
2023-04-29T04:55:00.329Z,25.98
2023-04-29T04:56:00.352Z,25.98
2023-04-29T04:57:00.498Z,25.99
2023-04-29T04:58:00.552Z,25.98
2023-04-29T04:59:00.577Z,25.98
2023-04-29T05:00:00.664Z,25.99
2023-04-29T05:01:00.779Z,25.96
2023-04-29T05:02:00.840Z,25.98
2023-04-29T05:03:00.958Z,25.99
2023-04-29T05:04:01.081Z,25.98
2023-04-29T05:05:00.987Z,25.99
2023-04-29T05:06:01.061Z,25.98
2023-04-29T05:07:01.138Z,26.01
2023-04-29T05:08:01.210Z,25.99
2023-04-29T05:09:01.273Z,25.96
2023-04-29T05:10:01.325Z,25.98
2023-04-29T05:11:01.398Z,25.98
2023-04-29T05:12:01.507Z,25.95
2023-04-29T05:13:01.546Z,25.95
2023-04-29T05:14:01.601Z,25.96
2023-04-29T05:15:01.702Z,25.96
2023-04-29T05:16:01.787Z,25.98
2023-04-29T05:17:01.849Z,25.98
2023-04-29T05:18:01.931Z,25.99
2023-04-29T05:19:01.944Z,25.99
2023-04-29T05:20:02.030Z,25.98
2023-04-29T05:21:02.096Z,25.98
2023-04-29T05:22:02.148Z,25.98
2023-04-29T05:23:02.241Z,25.98
2023-04-29T05:24:02.343Z,25.96
2023-04-29T05:25:02.325Z,25.98
2023-04-29T05:26:02.450Z,25.98
2023-04-29T05:27:02.485Z,25.98
2023-04-29T05:28:02.623Z,25.98
2023-04-29T05:29:02.588Z,25.98
2023-04-29T05:30:02.668Z,25.95
2023-04-29T05:31:02.756Z,25.96
2023-04-29T05:32:02.835Z,25.99
2023-04-29T05:33:02.874Z,25.96
2023-04-29T05:34:02.946Z,26.01
2023-04-29T05:35:04.242Z,25.99
2023-04-29T05:36:03.008Z,25.96
2023-04-29T05:37:03.055Z,26.01
2023-04-29T05:38:03.039Z,25.99
2023-04-29T05:39:03.063Z,25.99
2023-04-29T05:40:03.095Z,25.96
2023-04-29T05:41:03.112Z,25.99
2023-04-29T05:42:03.132Z,25.99
2023-04-29T05:43:03.128Z,25.98
2023-04-29T05:44:03.179Z,25.98
2023-04-29T05:45:03.165Z,25.98
2023-04-29T05:46:03.183Z,25.95
2023-04-29T05:47:03.211Z,25.98
2023-04-29T05:48:03.275Z,25.98
2023-04-29T05:49:03.268Z,25.95
2023-04-29T05:50:03.248Z,25.98
2023-04-29T05:51:03.298Z,25.98
2023-04-29T05:52:03.320Z,25.98
2023-04-29T05:53:03.321Z,25.99
2023-04-29T05:54:03.289Z,25.99
2023-04-29T05:55:03.351Z,25.98
2023-04-29T05:56:03.358Z,25.96
2023-04-29T05:57:03.368Z,25.99
2023-04-29T05:58:03.402Z,25.96
2023-04-29T05:59:03.451Z,25.96
2023-04-29T06:00:03.420Z,25.96
2023-04-29T06:01:03.420Z,25.99
2023-04-29T06:02:03.442Z,25.98
2023-04-29T06:03:03.627Z,25.99
2023-04-29T06:04:03.661Z,25.96
2023-04-29T06:05:03.667Z,25.96
2023-04-29T06:06:03.530Z,25.98
2023-04-29T06:07:03.529Z,25.95
2023-04-29T06:08:03.536Z,25.98
2023-04-29T06:09:05.211Z,25.96
2023-04-29T06:10:03.535Z,25.96
2023-04-29T06:11:03.599Z,25.98
2023-04-29T06:12:03.607Z,25.95
2023-04-29T06:13:03.613Z,25.94
2023-04-29T06:14:03.609Z,25.98
2023-04-29T06:15:03.632Z,25.96
2023-04-29T06:16:03.756Z,25.99
2023-04-29T06:17:03.671Z,26.02
2023-04-29T06:18:03.747Z,25.98
2023-04-29T06:19:03.675Z,25.99
2023-04-29T06:20:03.709Z,25.99
2023-04-29T06:21:03.713Z,25.98
2023-04-29T06:22:03.750Z,25.98
2023-04-29T06:23:03.762Z,25.99
2023-04-29T06:24:03.860Z,25.98
2023-04-29T06:25:03.943Z,25.98
2023-04-29T06:26:04.015Z,25.99
2023-04-29T06:27:04.052Z,26.01
2023-04-29T06:28:04.132Z,25.99
2023-04-29T06:29:04.187Z,26.01
2023-04-29T06:30:04.233Z,26.01
2023-04-29T06:31:04.362Z,26.02
2023-04-29T06:32:04.520Z,26.08
2023-04-29T06:33:04.493Z,26.05
2023-04-29T06:34:04.458Z,26.05
2023-04-29T06:35:04.534Z,26.06
2023-04-29T06:36:04.629Z,26.09
2023-04-29T06:37:04.643Z,26.09
2023-04-29T06:38:04.727Z,26.11
2023-04-29T06:39:04.768Z,26.11
2023-04-29T06:40:04.851Z,26.14
2023-04-29T06:41:04.894Z,26.14
2023-04-29T06:42:04.944Z,26.16
2023-04-29T06:43:05.012Z,26.16
2023-04-29T06:44:05.028Z,26.21
2023-04-29T06:45:05.058Z,26.19
2023-04-29T06:46:05.121Z,26.26
2023-04-29T06:47:05.245Z,26.21
2023-04-29T06:48:05.249Z,26.21
2023-04-29T06:49:05.256Z,26.25
2023-04-29T06:50:05.274Z,26.26
2023-04-29T06:51:05.345Z,26.26
2023-04-29T06:52:05.368Z,26.26
2023-04-29T06:53:05.361Z,26.29
2023-04-29T06:54:05.419Z,26.29
2023-04-29T06:55:05.477Z,26.29
2023-04-29T06:56:05.505Z,26.32
2023-04-29T06:57:05.518Z,26.31
2023-04-29T06:58:05.545Z,26.33
2023-04-29T06:59:05.637Z,26.33
2023-04-29T07:00:05.695Z,26.36
2023-04-29T07:01:05.767Z,26.35
2023-04-29T07:02:05.758Z,26.35
2023-04-29T07:03:05.905Z,26.38
2023-04-29T07:04:05.909Z,26.39
2023-04-29T07:05:05.878Z,26.38
2023-04-29T07:06:05.942Z,26.39
2023-04-29T07:07:05.977Z,26.40
2023-04-29T07:08:06.004Z,26.40
2023-04-29T07:09:06.025Z,26.39
2023-04-29T07:10:06.059Z,26.43
2023-04-29T07:11:06.108Z,26.42
2023-04-29T07:12:06.168Z,26.39
2023-04-29T07:13:06.195Z,26.40
2023-04-29T07:14:06.257Z,26.40
2023-04-29T07:15:06.278Z,26.42
2023-04-29T07:16:06.289Z,26.45
2023-04-29T07:17:06.468Z,26.45
2023-04-29T07:18:06.458Z,26.45
2023-04-29T07:19:06.450Z,26.47
2023-04-29T07:20:06.474Z,26.47
2023-04-29T07:21:06.515Z,26.47
2023-04-29T07:22:06.556Z,26.49
2023-04-29T07:23:06.588Z,26.49
2023-04-29T07:24:06.642Z,26.47
2023-04-29T07:25:06.689Z,26.50
2023-04-29T07:26:06.720Z,26.50
2023-04-29T07:27:06.738Z,26.52
2023-04-29T07:28:06.769Z,26.52
2023-04-29T07:29:06.811Z,26.50
2023-04-29T07:30:06.835Z,26.54
2023-04-29T07:31:06.939Z,26.54
2023-04-29T07:32:06.905Z,26.53
2023-04-29T07:33:07.005Z,26.53
2023-04-29T07:34:07.000Z,26.52
2023-04-29T07:35:07.034Z,26.54
2023-04-29T07:36:07.062Z,26.56
2023-04-29T07:37:07.107Z,26.54
2023-04-29T07:38:07.116Z,26.54
2023-04-29T07:39:07.141Z,26.56
2023-04-29T07:40:07.170Z,26.54
2023-04-29T07:41:07.245Z,26.56
2023-04-29T07:42:07.227Z,26.56
2023-04-29T07:43:07.262Z,26.56
2023-04-29T07:44:07.331Z,26.57
2023-04-29T07:45:07.397Z,26.59
2023-04-29T07:46:07.469Z,26.59
2023-04-29T07:47:07.438Z,26.60
2023-04-29T07:48:07.545Z,26.60
2023-04-29T07:49:07.531Z,26.60
2023-04-29T07:50:07.539Z,26.60
2023-04-29T07:51:07.589Z,26.64
2023-04-29T07:52:07.648Z,26.63
2023-04-29T07:53:07.664Z,26.63
2023-04-29T07:54:07.692Z,26.64
2023-04-29T07:55:07.744Z,26.63
2023-04-29T07:56:07.849Z,26.66
2023-04-29T07:57:07.820Z,26.63
2023-04-29T07:58:07.837Z,26.67
2023-04-29T07:59:07.909Z,26.69
2023-04-29T08:00:07.920Z,26.70
2023-04-29T08:01:07.980Z,26.69
2023-04-29T08:02:08.032Z,26.70
2023-04-29T08:03:08.207Z,26.73
2023-04-29T08:04:08.186Z,26.72
2023-04-29T08:05:08.703Z,26.76
2023-04-29T08:06:08.506Z,26.76
2023-04-29T08:07:08.173Z,26.77
2023-04-29T08:08:08.186Z,26.77
2023-04-29T08:09:08.217Z,26.74
2023-04-29T08:10:08.260Z,26.76
2023-04-29T08:11:08.256Z,26.79
2023-04-29T08:12:08.255Z,26.80
2023-04-29T08:13:08.335Z,26.80
2023-04-29T08:14:08.354Z,26.80
2023-04-29T08:15:09.784Z,26.82
2023-04-29T08:16:08.456Z,26.83
2023-04-29T08:17:08.454Z,26.86
2023-04-29T08:18:08.553Z,26.84
2023-04-29T08:19:08.558Z,26.84
2023-04-29T08:20:08.586Z,26.89
2023-04-29T08:21:08.602Z,26.86
2023-04-29T08:22:08.634Z,26.84
2023-04-29T08:23:08.669Z,26.89
2023-04-29T08:24:08.702Z,26.89
2023-04-29T08:25:08.725Z,26.89
2023-04-29T08:26:08.776Z,26.91
2023-04-29T08:27:08.796Z,26.91
2023-04-29T08:28:08.828Z,26.93
2023-04-29T08:29:08.833Z,26.94
2023-04-29T08:30:08.880Z,26.93
2023-04-29T08:31:08.943Z,26.94
2023-04-29T08:32:08.946Z,26.95
2023-04-29T08:33:08.993Z,26.94
2023-04-29T08:34:09.052Z,26.97
2023-04-29T08:35:09.086Z,26.94
2023-04-29T08:36:09.115Z,26.97
2023-04-29T08:37:09.115Z,26.98
2023-04-29T08:38:09.214Z,27.00
2023-04-29T08:39:09.209Z,27.00
2023-04-29T08:40:09.243Z,26.97
2023-04-29T08:41:09.288Z,26.98
2023-04-29T08:42:09.300Z,27.01
2023-04-29T08:43:09.337Z,27.01
2023-04-29T08:44:09.372Z,27.00
2023-04-29T08:45:09.432Z,27.03
2023-04-29T08:46:09.502Z,27.03
2023-04-29T08:47:09.496Z,27.01
2023-04-29T08:48:09.583Z,27.04
2023-04-29T08:49:09.556Z,27.05
2023-04-29T08:50:09.591Z,27.05
2023-04-29T08:51:09.704Z,27.07
2023-04-29T08:52:09.707Z,27.05
2023-04-29T08:53:09.795Z,27.07
2023-04-29T08:54:09.825Z,27.08
2023-04-29T08:55:09.874Z,27.07
2023-04-29T08:56:09.952Z,27.10
2023-04-29T08:57:09.978Z,27.08
2023-04-29T08:58:10.062Z,27.08
2023-04-29T08:59:10.093Z,27.08
2023-04-29T09:00:10.176Z,27.10
2023-04-29T09:01:10.258Z,27.07
2023-04-29T09:02:10.262Z,27.11
2023-04-29T09:03:10.387Z,27.10
2023-04-29T09:04:10.481Z,27.11
2023-04-29T09:05:10.410Z,27.13
2023-04-29T09:06:10.475Z,27.11
2023-04-29T09:07:10.562Z,27.11
2023-04-29T09:08:10.591Z,27.11
2023-04-29T09:09:10.663Z,27.10
2023-04-29T09:10:10.693Z,27.08
2023-04-29T09:11:10.757Z,27.08
2023-04-29T09:12:10.832Z,27.11
2023-04-29T09:13:10.859Z,27.11
2023-04-29T09:14:10.911Z,27.10
2023-04-29T09:15:10.983Z,27.11
2023-04-29T09:16:11.032Z,27.11
2023-04-29T09:17:11.099Z,27.08
2023-04-29T09:18:11.170Z,27.10
2023-04-29T09:19:11.172Z,27.10
2023-04-29T09:20:11.234Z,27.08
2023-04-29T09:21:11.291Z,27.07
2023-04-29T09:22:11.312Z,27.07
2023-04-29T09:23:11.348Z,27.07
2023-04-29T09:24:11.451Z,27.08
2023-04-29T09:25:11.429Z,27.10
2023-04-29T09:26:11.500Z,27.08
2023-04-29T09:27:11.551Z,27.08
2023-04-29T09:28:11.587Z,27.10
2023-04-29T09:29:11.681Z,27.10
2023-04-29T09:30:11.679Z,27.10
2023-04-29T09:31:11.719Z,27.10
2023-04-29T09:32:11.755Z,27.11
2023-04-29T09:33:11.853Z,27.13
2023-04-29T09:34:12.010Z,27.14
2023-04-29T09:35:11.942Z,27.11
2023-04-29T09:36:12.013Z,27.13
2023-04-29T09:37:12.094Z,27.14
2023-04-29T09:38:12.148Z,27.13
2023-04-29T09:39:12.224Z,27.11
2023-04-29T09:40:12.238Z,27.17
2023-04-29T09:41:12.354Z,27.17
2023-04-29T09:42:12.352Z,27.15
2023-04-29T09:43:12.401Z,27.18
2023-04-29T09:44:12.468Z,27.15
2023-04-29T09:45:12.557Z,27.18
2023-04-29T09:46:12.606Z,27.17
2023-04-29T09:47:12.658Z,27.18
2023-04-29T09:48:12.724Z,27.20
2023-04-29T09:49:12.761Z,27.18
2023-04-29T09:50:12.788Z,27.18
2023-04-29T09:51:15.636Z,27.20
2023-04-29T09:52:12.865Z,27.20
2023-04-29T09:53:12.864Z,27.20
2023-04-29T09:54:12.873Z,27.21
2023-04-29T09:55:12.879Z,27.21
2023-04-29T09:56:12.859Z,27.20
2023-04-29T09:57:12.884Z,27.24
2023-04-29T09:58:12.871Z,27.23
2023-04-29T09:59:12.865Z,27.24
2023-04-29T10:00:12.886Z,27.24
2023-04-29T10:01:12.912Z,27.27
2023-04-29T10:02:12.879Z,27.27
2023-04-29T10:03:13.032Z,27.28
2023-04-29T10:04:12.909Z,27.30
2023-04-29T10:05:12.959Z,27.27
2023-04-29T10:06:12.877Z,27.28
2023-04-29T10:07:12.871Z,27.28
2023-04-29T10:08:12.874Z,27.28
2023-04-29T10:09:12.841Z,27.30
2023-04-29T10:10:12.944Z,27.28
2023-04-29T10:11:12.860Z,27.30
2023-04-29T10:12:12.875Z,27.28
2023-04-29T10:13:12.858Z,27.28
2023-04-29T10:14:12.841Z,27.30
2023-04-29T10:15:12.826Z,27.28
2023-04-29T10:16:12.949Z,27.30
2023-04-29T10:17:12.881Z,27.30
2023-04-29T10:18:12.901Z,27.27
2023-04-29T10:19:13.816Z,27.27
2023-04-29T10:20:12.853Z,27.27
2023-04-29T10:21:12.907Z,27.27
2023-04-29T10:22:12.875Z,27.27
2023-04-29T10:23:12.873Z,27.30
2023-04-29T10:24:12.868Z,27.30
2023-04-29T10:25:12.867Z,27.25
2023-04-29T10:26:12.884Z,27.31
2023-04-29T10:27:12.889Z,27.33
2023-04-29T10:28:12.886Z,27.30
2023-04-29T10:29:12.884Z,27.28
2023-04-29T10:30:12.897Z,27.30
2023-04-29T10:31:12.924Z,27.33
2023-04-29T10:32:12.897Z,27.30
2023-04-29T10:33:13.055Z,27.31
2023-04-29T10:34:12.908Z,27.31
2023-04-29T10:35:12.908Z,27.33
2023-04-29T10:36:12.893Z,27.34
2023-04-29T10:37:12.899Z,27.34
2023-04-29T10:38:12.905Z,27.35
2023-04-29T10:39:12.952Z,27.35
2023-04-29T10:40:13.026Z,27.37
2023-04-29T10:41:13.064Z,27.37
2023-04-29T10:42:13.144Z,27.35
2023-04-29T10:43:13.160Z,27.35
2023-04-29T10:44:13.191Z,27.33
2023-04-29T10:45:13.276Z,27.35
2023-04-29T10:46:13.344Z,27.37
2023-04-29T10:47:13.354Z,27.37
2023-04-29T10:48:13.450Z,27.37
2023-04-29T10:49:13.443Z,27.35
2023-04-29T10:50:13.503Z,27.35
2023-04-29T10:51:13.556Z,27.35
2023-04-29T10:52:13.628Z,27.37
2023-04-29T10:53:13.646Z,27.35
2023-04-29T10:54:13.764Z,27.38
2023-04-29T10:55:13.736Z,27.40
2023-04-29T10:56:13.793Z,27.41
2023-04-29T10:57:13.858Z,27.38
2023-04-29T10:58:13.864Z,27.40
2023-04-29T10:59:13.886Z,27.41
2023-04-29T11:00:14.697Z,27.38
2023-04-29T11:01:13.988Z,27.41
2023-04-29T11:02:14.042Z,27.40
2023-04-29T11:03:14.162Z,27.40
2023-04-29T11:04:14.133Z,27.40
2023-04-29T11:05:14.155Z,27.41
2023-04-29T11:06:14.183Z,27.41
2023-04-29T11:07:14.231Z,27.41
2023-04-29T11:08:14.296Z,27.40
2023-04-29T11:09:14.356Z,27.41
2023-04-29T11:10:14.415Z,27.41
2023-04-29T11:11:14.410Z,27.40
2023-04-29T11:12:14.420Z,27.42
2023-04-29T11:13:14.451Z,27.42
2023-04-29T11:14:14.549Z,27.41
2023-04-29T11:15:14.558Z,27.42
2023-04-29T11:16:14.662Z,27.40
2023-04-29T11:17:14.661Z,27.38
2023-04-29T11:18:14.726Z,27.38
2023-04-29T11:19:14.769Z,27.38
2023-04-29T11:20:14.799Z,27.41
2023-04-29T11:21:14.862Z,27.40
2023-04-29T11:22:14.927Z,27.38
2023-04-29T11:23:14.954Z,27.37
2023-04-29T11:24:15.017Z,27.38
2023-04-29T11:25:15.093Z,27.34
2023-04-29T11:26:15.172Z,27.35
2023-04-29T11:27:15.206Z,27.40
2023-04-29T11:28:15.252Z,27.35
2023-04-29T11:29:15.317Z,27.35
2023-04-29T11:30:15.369Z,27.35
2023-04-29T11:31:15.481Z,27.34
2023-04-29T11:32:15.534Z,27.35
2023-04-29T11:33:15.542Z,27.34
2023-04-29T11:34:15.563Z,27.35
2023-04-29T11:35:15.631Z,27.35
2023-04-29T11:36:15.671Z,27.37
2023-04-29T11:37:15.690Z,27.35
2023-04-29T11:38:15.763Z,27.34
2023-04-29T11:39:15.800Z,27.34
2023-04-29T11:40:15.885Z,27.35
2023-04-29T11:41:15.878Z,27.33
2023-04-29T11:42:15.953Z,27.31
2023-04-29T11:43:15.989Z,27.33
2023-04-29T11:44:16.047Z,27.33
2023-04-29T11:45:16.093Z,27.33
2023-04-29T11:46:16.237Z,27.31
2023-04-29T11:47:16.200Z,27.28
2023-04-29T11:48:16.304Z,27.30
2023-04-29T11:49:16.317Z,27.31
2023-04-29T11:50:16.389Z,27.31
2023-04-29T11:51:16.420Z,27.28
2023-04-29T11:52:16.484Z,27.30
2023-04-29T11:53:16.548Z,27.30
2023-04-29T11:54:16.587Z,27.30
2023-04-29T11:55:16.662Z,27.27
2023-04-29T11:56:16.665Z,27.28
2023-04-29T11:57:16.731Z,27.25
2023-04-29T11:58:16.792Z,27.24
2023-04-29T11:59:16.854Z,27.25
2023-04-29T12:00:16.969Z,27.24
2023-04-29T12:01:16.970Z,27.23
2023-04-29T12:02:17.092Z,27.23
2023-04-29T12:03:17.244Z,27.21
2023-04-29T12:04:17.546Z,27.20
2023-04-29T12:05:17.729Z,27.20
2023-04-29T12:06:17.208Z,27.21
2023-04-29T12:07:17.262Z,27.23
2023-04-29T12:08:17.316Z,27.23
2023-04-29T12:09:17.334Z,27.20
2023-04-29T12:10:17.441Z,27.21
2023-04-29T12:11:17.434Z,27.20
2023-04-29T12:12:17.492Z,27.20
2023-04-29T12:13:17.531Z,27.18
2023-04-29T12:14:17.615Z,27.20
2023-04-29T12:15:17.672Z,27.21
2023-04-29T12:16:17.794Z,27.20
2023-04-29T12:17:17.811Z,27.21
2023-04-29T12:18:17.821Z,27.21
2023-04-29T12:19:17.911Z,27.20
2023-04-29T12:20:18.021Z,27.20
2023-04-29T12:21:18.039Z,27.20
2023-04-29T12:22:18.068Z,27.18
2023-04-29T12:23:18.139Z,27.20
2023-04-29T12:24:18.170Z,27.20
2023-04-29T12:25:18.256Z,27.20
2023-04-29T12:26:18.248Z,27.18
2023-04-29T12:27:18.337Z,27.20
2023-04-29T12:28:18.400Z,27.21
2023-04-29T12:29:18.422Z,27.20
2023-04-29T12:30:18.493Z,27.20
2023-04-29T12:31:18.513Z,27.21
2023-04-29T12:32:18.552Z,27.18
2023-04-29T12:33:18.643Z,27.20
2023-04-29T12:34:18.703Z,27.18
2023-04-29T12:35:18.786Z,27.18
2023-04-29T12:36:18.815Z,27.21
2023-04-29T12:37:18.868Z,27.20
2023-04-29T12:38:18.880Z,27.20
2023-04-29T12:39:18.957Z,27.18
2023-04-29T12:40:19.025Z,27.21
2023-04-29T12:41:19.079Z,27.21
2023-04-29T12:42:19.100Z,27.18
2023-04-29T12:43:19.155Z,27.21
2023-04-29T12:44:19.244Z,27.21
2023-04-29T12:45:19.260Z,27.21
2023-04-29T12:46:19.412Z,27.18
2023-04-29T12:47:19.379Z,27.21
2023-04-29T12:48:29.356Z,27.21
2023-04-29T12:49:20.411Z,27.15
2023-04-29T12:50:19.438Z,27.15
2023-04-29T12:51:19.425Z,27.20
2023-04-29T12:52:19.437Z,27.18
2023-04-29T12:53:19.429Z,27.20